sensor_id;sensor_type;location;lat;lon;timestamp;temperature;humidity
70214;DHT22;60138;55.808;37.078;2023-07-29T00:01:35;15.82;76.55
70214;DHT22;60138;55.808;37.078;2023-07-29T00:04:01;15.80;77.28
70214;DHT22;60138;55.808;37.078;2023-07-29T00:06:27;15.78;76.94
70214;DHT22;60138;55.808;37.078;2023-07-29T00:08:52;15.84;76.84
70214;DHT22;60138;55.808;37.078;2023-07-29T00:11:18;15.91;76.78
70214;DHT22;60138;55.808;37.078;2023-07-29T00:13:44;15.95;76.73
70214;DHT22;60138;55.808;37.078;2023-07-29T00:16:10;15.99;76.64
70214;DHT22;60138;55.808;37.078;2023-07-29T00:18:36;16.01;76.59
70214;DHT22;60138;55.808;37.078;2023-07-29T00:21:02;15.99;76.43
70214;DHT22;60138;55.808;37.078;2023-07-29T00:23:28;15.96;76.87
70214;DHT22;60138;55.808;37.078;2023-07-29T00:25:54;15.93;76.95
70214;DHT22;60138;55.808;37.078;2023-07-29T00:28:20;15.96;76.47
70214;DHT22;60138;55.808;37.078;2023-07-29T00:30:45;15.93;76.53
70214;DHT22;60138;55.808;37.078;2023-07-29T00:33:11;15.90;76.86
70214;DHT22;60138;55.808;37.078;2023-07-29T00:35:38;15.89;76.72
70214;DHT22;60138;55.808;37.078;2023-07-29T00:38:04;15.90;76.57
70214;DHT22;60138;55.808;37.078;2023-07-29T00:40:30;15.91;76.58
70214;DHT22;60138;55.808;37.078;2023-07-29T00:43:00;15.90;76.80
70214;DHT22;60138;55.808;37.078;2023-07-29T00:45:27;15.86;77.63
70214;DHT22;60138;55.808;37.078;2023-07-29T00:47:54;15.83;77.20
70214;DHT22;60138;55.808;37.078;2023-07-29T00:50:20;15.83;77.47
70214;DHT22;60138;55.808;37.078;2023-07-29T00:52:48;15.81;77.56
70214;DHT22;60138;55.808;37.078;2023-07-29T00:55:15;15.80;77.35
70214;DHT22;60138;55.808;37.078;2023-07-29T00:57:41;15.76;78.38
70214;DHT22;60138;55.808;37.078;2023-07-29T01:00:07;15.76;77.39
70214;DHT22;60138;55.808;37.078;2023-07-29T01:02:35;15.75;77.67
70214;DHT22;60138;55.808;37.078;2023-07-29T01:05:01;15.72;77.54
70214;DHT22;60138;55.808;37.078;2023-07-29T01:10:42;15.67;78.92
70214;DHT22;60138;55.808;37.078;2023-07-29T01:13:34;15.59;79.35
70214;DHT22;60138;55.808;37.078;2023-07-29T01:16:10;15.54;78.69
70214;DHT22;60138;55.808;37.078;2023-07-29T01:18:41;15.49;79.01
70214;DHT22;60138;55.808;37.078;2023-07-29T01:21:08;15.46;79.53
70214;DHT22;60138;55.808;37.078;2023-07-29T01:23:35;15.45;79.84
70214;DHT22;60138;55.808;37.078;2023-07-29T01:26:01;15.43;79.67
70214;DHT22;60138;55.808;37.078;2023-07-29T01:28:28;15.41;79.38
70214;DHT22;60138;55.808;37.078;2023-07-29T01:31:07;15.40;79.25
70214;DHT22;60138;55.808;37.078;2023-07-29T01:36:34;15.42;79.08
70214;DHT22;60138;55.808;37.078;2023-07-29T01:39:03;15.40;78.60
70214;DHT22;60138;55.808;37.078;2023-07-29T01:41:29;15.42;78.64
70214;DHT22;60138;55.808;37.078;2023-07-29T01:43:56;15.43;78.68
70214;DHT22;60138;55.808;37.078;2023-07-29T01:46:22;15.45;78.87
70214;DHT22;60138;55.808;37.078;2023-07-29T01:48:48;15.45;78.64
70214;DHT22;60138;55.808;37.078;2023-07-29T01:51:14;15.46;77.83
70214;DHT22;60138;55.808;37.078;2023-07-29T01:53:40;15.46;78.45
70214;DHT22;60138;55.808;37.078;2023-07-29T01:56:06;15.47;78.68
70214;DHT22;60138;55.808;37.078;2023-07-29T01:58:33;15.47;79.34
70214;DHT22;60138;55.808;37.078;2023-07-29T02:01:00;15.46;79.24
70214;DHT22;60138;55.808;37.078;2023-07-29T02:03:26;15.46;78.99
70214;DHT22;60138;55.808;37.078;2023-07-29T02:05:52;15.47;79.33
70214;DHT22;60138;55.808;37.078;2023-07-29T02:08:18;15.48;79.06
70214;DHT22;60138;55.808;37.078;2023-07-29T02:10:44;15.48;78.69
70214;DHT22;60138;55.808;37.078;2023-07-29T02:13:10;15.51;78.88
70214;DHT22;60138;55.808;37.078;2023-07-29T02:15:36;15.51;79.11
70214;DHT22;60138;55.808;37.078;2023-07-29T02:18:02;15.51;78.40
70214;DHT22;60138;55.808;37.078;2023-07-29T02:20:28;15.55;78.56
70214;DHT22;60138;55.808;37.078;2023-07-29T02:22:54;15.55;78.50
70214;DHT22;60138;55.808;37.078;2023-07-29T02:25:20;15.56;78.79
70214;DHT22;60138;55.808;37.078;2023-07-29T02:27:45;15.56;78.18
70214;DHT22;60138;55.808;37.078;2023-07-29T02:30:12;15.57;78.84
70214;DHT22;60138;55.808;37.078;2023-07-29T02:32:38;15.55;78.63
70214;DHT22;60138;55.808;37.078;2023-07-29T02:35:04;15.56;78.48
70214;DHT22;60138;55.808;37.078;2023-07-29T02:37:30;15.57;78.72
70214;DHT22;60138;55.808;37.078;2023-07-29T02:39:56;15.57;78.51
70214;DHT22;60138;55.808;37.078;2023-07-29T02:42:22;15.57;78.59
70214;DHT22;60138;55.808;37.078;2023-07-29T02:44:48;15.57;78.87
70214;DHT22;60138;55.808;37.078;2023-07-29T02:47:13;15.59;78.63
70214;DHT22;60138;55.808;37.078;2023-07-29T02:49:39;15.60;78.31
70214;DHT22;60138;55.808;37.078;2023-07-29T02:52:05;15.58;78.43
70214;DHT22;60138;55.808;37.078;2023-07-29T02:54:31;15.60;78.31
70214;DHT22;60138;55.808;37.078;2023-07-29T02:56:56;15.62;78.29
70214;DHT22;60138;55.808;37.078;2023-07-29T02:59:22;15.63;78.56
70214;DHT22;60138;55.808;37.078;2023-07-29T03:01:48;15.62;78.82
70214;DHT22;60138;55.808;37.078;2023-07-29T03:04:14;15.61;78.59
70214;DHT22;60138;55.808;37.078;2023-07-29T03:06:40;15.60;78.69
70214;DHT22;60138;55.808;37.078;2023-07-29T03:09:06;15.61;79.29
70214;DHT22;60138;55.808;37.078;2023-07-29T03:11:32;15.61;78.80
70214;DHT22;60138;55.808;37.078;2023-07-29T03:13:58;15.59;78.37
70214;DHT22;60138;55.808;37.078;2023-07-29T03:16:24;15.59;78.90
70214;DHT22;60138;55.808;37.078;2023-07-29T03:18:54;15.59;79.25
70214;DHT22;60138;55.808;37.078;2023-07-29T03:21:20;15.60;79.07
70214;DHT22;60138;55.808;37.078;2023-07-29T03:23:47;15.61;78.82
70214;DHT22;60138;55.808;37.078;2023-07-29T03:26:12;15.66;79.00
70214;DHT22;60138;55.808;37.078;2023-07-29T03:28:41;15.67;78.89
70214;DHT22;60138;55.808;37.078;2023-07-29T03:31:08;15.71;78.75
70214;DHT22;60138;55.808;37.078;2023-07-29T03:33:34;15.73;78.94
70214;DHT22;60138;55.808;37.078;2023-07-29T03:35:59;15.73;78.61
70214;DHT22;60138;55.808;37.078;2023-07-29T03:38:25;15.73;78.79
70214;DHT22;60138;55.808;37.078;2023-07-29T03:40:51;15.76;78.83
70214;DHT22;60138;55.808;37.078;2023-07-29T03:43:17;15.78;77.93
70214;DHT22;60138;55.808;37.078;2023-07-29T03:45:43;15.82;78.26
70214;DHT22;60138;55.808;37.078;2023-07-29T03:48:09;15.86;78.15
70214;DHT22;60138;55.808;37.078;2023-07-29T03:50:36;15.89;77.82
70214;DHT22;60138;55.808;37.078;2023-07-29T03:53:05;15.97;77.72
70214;DHT22;60138;55.808;37.078;2023-07-29T03:55:32;16.04;77.74
70214;DHT22;60138;55.808;37.078;2023-07-29T03:57:58;16.14;77.60
70214;DHT22;60138;55.808;37.078;2023-07-29T04:00:24;16.15;77.14
70214;DHT22;60138;55.808;37.078;2023-07-29T04:02:51;16.17;77.39
70214;DHT22;60138;55.808;37.078;2023-07-29T04:05:17;16.17;77.31
70214;DHT22;60138;55.808;37.078;2023-07-29T04:07:43;16.17;77.88
70214;DHT22;60138;55.808;37.078;2023-07-29T04:10:10;16.20;77.79
70214;DHT22;60138;55.808;37.078;2023-07-29T04:12:36;16.20;77.67
70214;DHT22;60138;55.808;37.078;2023-07-29T04:15:03;16.20;77.83
70214;DHT22;60138;55.808;37.078;2023-07-29T04:17:30;16.22;77.45
70214;DHT22;60138;55.808;37.078;2023-07-29T04:19:56;16.21;77.41
70214;DHT22;60138;55.808;37.078;2023-07-29T04:22:27;16.27;77.27
70214;DHT22;60138;55.808;37.078;2023-07-29T04:24:53;16.24;77.27
70214;DHT22;60138;55.808;37.078;2023-07-29T04:27:19;16.25;77.33
70214;DHT22;60138;55.808;37.078;2023-07-29T04:29:44;16.22;77.34
70214;DHT22;60138;55.808;37.078;2023-07-29T04:32:10;16.26;77.40
70214;DHT22;60138;55.808;37.078;2023-07-29T04:34:36;16.27;77.02
70214;DHT22;60138;55.808;37.078;2023-07-29T04:37:02;16.29;77.43
70214;DHT22;60138;55.808;37.078;2023-07-29T04:39:27;16.33;77.23
70214;DHT22;60138;55.808;37.078;2023-07-29T04:41:53;16.40;77.31
70214;DHT22;60138;55.808;37.078;2023-07-29T04:44:20;16.46;76.94
70214;DHT22;60138;55.808;37.078;2023-07-29T04:46:45;16.46;76.60
70214;DHT22;60138;55.808;37.078;2023-07-29T04:49:11;16.52;76.77
70214;DHT22;60138;55.808;37.078;2023-07-29T04:51:37;16.59;76.04
70214;DHT22;60138;55.808;37.078;2023-07-29T04:54:03;16.66;75.65
70214;DHT22;60138;55.808;37.078;2023-07-29T04:56:29;16.75;75.89
70214;DHT22;60138;55.808;37.078;2023-07-29T04:58:54;16.82;75.60
70214;DHT22;60138;55.808;37.078;2023-07-29T05:01:20;16.86;75.38
70214;DHT22;60138;55.808;37.078;2023-07-29T05:03:46;16.87;75.13
70214;DHT22;60138;55.808;37.078;2023-07-29T05:06:12;16.87;75.05
70214;DHT22;60138;55.808;37.078;2023-07-29T05:08:38;16.88;75.11
70214;DHT22;60138;55.808;37.078;2023-07-29T05:11:04;16.89;75.05
70214;DHT22;60138;55.808;37.078;2023-07-29T05:13:29;16.89;75.04
70214;DHT22;60138;55.808;37.078;2023-07-29T05:15:56;16.94;74.90
70214;DHT22;60138;55.808;37.078;2023-07-29T05:18:22;16.94;74.58
70214;DHT22;60138;55.808;37.078;2023-07-29T05:20:49;16.93;74.37
70214;DHT22;60138;55.808;37.078;2023-07-29T05:23:14;16.95;74.51
70214;DHT22;60138;55.808;37.078;2023-07-29T05:25:41;17.02;74.25
70214;DHT22;60138;55.808;37.078;2023-07-29T05:28:07;17.03;74.30
70214;DHT22;60138;55.808;37.078;2023-07-29T05:30:33;17.06;73.99
70214;DHT22;60138;55.808;37.078;2023-07-29T05:33:00;17.11;73.59
70214;DHT22;60138;55.808;37.078;2023-07-29T05:35:26;17.16;74.05
70214;DHT22;60138;55.808;37.078;2023-07-29T05:37:53;17.19;73.61
70214;DHT22;60138;55.808;37.078;2023-07-29T05:40:18;17.21;73.84
70214;DHT22;60138;55.808;37.078;2023-07-29T05:42:46;17.26;73.83
70214;DHT22;60138;55.808;37.078;2023-07-29T05:45:12;17.36;73.47
70214;DHT22;60138;55.808;37.078;2023-07-29T05:47:37;17.37;73.21
70214;DHT22;60138;55.808;37.078;2023-07-29T05:50:04;17.48;72.62
70214;DHT22;60138;55.808;37.078;2023-07-29T05:52:31;17.56;72.93
70214;DHT22;60138;55.808;37.078;2023-07-29T05:54:57;17.55;72.72
70214;DHT22;60138;55.808;37.078;2023-07-29T05:57:23;17.63;72.74
70214;DHT22;60138;55.808;37.078;2023-07-29T05:59:49;17.66;72.59
70214;DHT22;60138;55.808;37.078;2023-07-29T06:02:15;17.67;72.37
70214;DHT22;60138;55.808;37.078;2023-07-29T06:04:40;17.66;70.62
70214;DHT22;60138;55.808;37.078;2023-07-29T06:07:07;17.59;71.23
70214;DHT22;60138;55.808;37.078;2023-07-29T06:09:33;17.60;71.35
70214;DHT22;60138;55.808;37.078;2023-07-29T06:11:59;17.64;71.19
70214;DHT22;60138;55.808;37.078;2023-07-29T06:14:26;17.67;71.00
70214;DHT22;60138;55.808;37.078;2023-07-29T06:16:51;17.73;71.13
70214;DHT22;60138;55.808;37.078;2023-07-29T06:19:20;17.82;71.84
70214;DHT22;60138;55.808;37.078;2023-07-29T06:21:46;17.93;71.10
70214;DHT22;60138;55.808;37.078;2023-07-29T06:24:12;18.04;70.45
70214;DHT22;60138;55.808;37.078;2023-07-29T06:26:37;18.04;70.12
70214;DHT22;60138;55.808;37.078;2023-07-29T06:29:03;18.12;70.66
70214;DHT22;60138;55.808;37.078;2023-07-29T06:31:29;18.14;70.43
70214;DHT22;60138;55.808;37.078;2023-07-29T06:33:55;18.12;69.45
70214;DHT22;60138;55.808;37.078;2023-07-29T06:36:21;18.10;69.49
70214;DHT22;60138;55.808;37.078;2023-07-29T06:38:47;18.14;69.59
70214;DHT22;60138;55.808;37.078;2023-07-29T06:41:13;18.14;69.52
70214;DHT22;60138;55.808;37.078;2023-07-29T06:43:39;18.19;69.91
70214;DHT22;60138;55.808;37.078;2023-07-29T06:46:05;18.22;69.59
70214;DHT22;60138;55.808;37.078;2023-07-29T06:48:31;18.22;69.37
70214;DHT22;60138;55.808;37.078;2023-07-29T06:50:56;18.24;69.10
70214;DHT22;60138;55.808;37.078;2023-07-29T06:53:22;18.41;69.38
70214;DHT22;60138;55.808;37.078;2023-07-29T06:55:48;18.52;69.03
70214;DHT22;60138;55.808;37.078;2023-07-29T06:58:14;18.73;69.18
70214;DHT22;60138;55.808;37.078;2023-07-29T07:00:39;18.92;68.89
70214;DHT22;60138;55.808;37.078;2023-07-29T07:03:05;19.07;66.56
70214;DHT22;60138;55.808;37.078;2023-07-29T07:05:31;19.07;65.55
70214;DHT22;60138;55.808;37.078;2023-07-29T07:07:56;19.06;66.00
70214;DHT22;60138;55.808;37.078;2023-07-29T07:10:22;19.03;66.49
70214;DHT22;60138;55.808;37.078;2023-07-29T07:12:48;19.10;66.93
70214;DHT22;60138;55.808;37.078;2023-07-29T07:15:14;19.12;66.95
70214;DHT22;60138;55.808;37.078;2023-07-29T07:17:39;19.22;66.29
70214;DHT22;60138;55.808;37.078;2023-07-29T07:20:06;19.20;66.00
70214;DHT22;60138;55.808;37.078;2023-07-29T07:22:32;19.28;66.99
70214;DHT22;60138;55.808;37.078;2023-07-29T07:24:57;19.29;66.21
70214;DHT22;60138;55.808;37.078;2023-07-29T07:27:23;19.27;63.88
70214;DHT22;60138;55.808;37.078;2023-07-29T07:29:49;19.16;65.64
70214;DHT22;60138;55.808;37.078;2023-07-29T07:32:15;19.05;65.32
70214;DHT22;60138;55.808;37.078;2023-07-29T07:34:40;19.14;66.41
70214;DHT22;60138;55.808;37.078;2023-07-29T07:37:06;19.30;65.85
70214;DHT22;60138;55.808;37.078;2023-07-29T07:39:32;19.40;65.27
70214;DHT22;60138;55.808;37.078;2023-07-29T07:41:58;19.47;64.86
70214;DHT22;60138;55.808;37.078;2023-07-29T07:44:24;19.57;64.06
70214;DHT22;60138;55.808;37.078;2023-07-29T07:46:49;19.53;62.85
70214;DHT22;60138;55.808;37.078;2023-07-29T07:49:15;19.59;64.91
70214;DHT22;60138;55.808;37.078;2023-07-29T07:51:43;19.68;61.77
70214;DHT22;60138;55.808;37.078;2023-07-29T07:54:09;19.72;63.60
70214;DHT22;60138;55.808;37.078;2023-07-29T07:56:35;19.63;63.05
70214;DHT22;60138;55.808;37.078;2023-07-29T07:59:00;19.58;64.06
70214;DHT22;60138;55.808;37.078;2023-07-29T08:01:26;19.53;64.37
70214;DHT22;60138;55.808;37.078;2023-07-29T08:03:52;19.55;64.67
70214;DHT22;60138;55.808;37.078;2023-07-29T08:06:18;19.61;65.29
70214;DHT22;60138;55.808;37.078;2023-07-29T08:08:43;19.73;64.81
70214;DHT22;60138;55.808;37.078;2023-07-29T08:11:09;19.80;64.56
70214;DHT22;60138;55.808;37.078;2023-07-29T08:13:35;19.85;64.85
70214;DHT22;60138;55.808;37.078;2023-07-29T08:16:01;19.98;65.01
70214;DHT22;60138;55.808;37.078;2023-07-29T08:18:26;20.10;64.54
70214;DHT22;60138;55.808;37.078;2023-07-29T08:20:56;20.21;64.69
70214;DHT22;60138;55.808;37.078;2023-07-29T08:23:22;20.27;60.83
70214;DHT22;60138;55.808;37.078;2023-07-29T08:25:56;20.22;61.60
70214;DHT22;60138;55.808;37.078;2023-07-29T08:28:23;20.24;64.08
70214;DHT22;60138;55.808;37.078;2023-07-29T08:30:49;20.30;64.10
70214;DHT22;60138;55.808;37.078;2023-07-29T08:33:15;20.41;60.19
70214;DHT22;60138;55.808;37.078;2023-07-29T08:35:40;20.45;62.80
70214;DHT22;60138;55.808;37.078;2023-07-29T08:38:06;20.50;62.89
70214;DHT22;60138;55.808;37.078;2023-07-29T08:40:34;20.48;60.99
70214;DHT22;60138;55.808;37.078;2023-07-29T08:43:05;20.47;60.32
70214;DHT22;60138;55.808;37.078;2023-07-29T08:45:35;20.51;59.44
70214;DHT22;60138;55.808;37.078;2023-07-29T08:48:02;20.50;61.63
70214;DHT22;60138;55.808;37.078;2023-07-29T08:50:33;20.55;59.78
70214;DHT22;60138;55.808;37.078;2023-07-29T08:53:05;20.50;60.62
70214;DHT22;60138;55.808;37.078;2023-07-29T08:55:31;20.53;61.54
70214;DHT22;60138;55.808;37.078;2023-07-29T08:57:58;20.50;62.09
70214;DHT22;60138;55.808;37.078;2023-07-29T09:00:25;20.55;60.38
70214;DHT22;60138;55.808;37.078;2023-07-29T09:02:51;20.65;60.51
70214;DHT22;60138;55.808;37.078;2023-07-29T09:05:17;20.86;61.09
70214;DHT22;60138;55.808;37.078;2023-07-29T09:07:44;20.80;61.79
70214;DHT22;60138;55.808;37.078;2023-07-29T09:10:13;20.83;57.04
70214;DHT22;60138;55.808;37.078;2023-07-29T09:12:39;20.92;60.06
70214;DHT22;60138;55.808;37.078;2023-07-29T09:15:06;21.24;58.35
70214;DHT22;60138;55.808;37.078;2023-07-29T09:17:35;21.43;59.60
70214;DHT22;60138;55.808;37.078;2023-07-29T09:20:01;21.57;61.19
70214;DHT22;60138;55.808;37.078;2023-07-29T09:22:27;21.58;57.96
70214;DHT22;60138;55.808;37.078;2023-07-29T09:24:53;21.66;59.37
70214;DHT22;60138;55.808;37.078;2023-07-29T09:27:26;21.70;58.66
70214;DHT22;60138;55.808;37.078;2023-07-29T09:29:53;21.64;59.80
70214;DHT22;60138;55.808;37.078;2023-07-29T09:32:24;21.63;56.25
70214;DHT22;60138;55.808;37.078;2023-07-29T09:34:50;21.59;55.82
70214;DHT22;60138;55.808;37.078;2023-07-29T09:37:22;21.57;60.59
70214;DHT22;60138;55.808;37.078;2023-07-29T09:39:49;21.47;57.24
70214;DHT22;60138;55.808;37.078;2023-07-29T09:42:19;21.24;58.09
70214;DHT22;60138;55.808;37.078;2023-07-29T09:44:46;21.06;57.51
70214;DHT22;60138;55.808;37.078;2023-07-29T09:47:30;21.03;59.41
70214;DHT22;60138;55.808;37.078;2023-07-29T09:49:55;21.24;59.58
70214;DHT22;60138;55.808;37.078;2023-07-29T09:52:22;21.43;59.91
70214;DHT22;60138;55.808;37.078;2023-07-29T09:54:48;21.51;58.93
70214;DHT22;60138;55.808;37.078;2023-07-29T09:57:16;21.50;58.41
70214;DHT22;60138;55.808;37.078;2023-07-29T09:59:43;21.57;59.18
70214;DHT22;60138;55.808;37.078;2023-07-29T10:02:13;21.53;53.53
70214;DHT22;60138;55.808;37.078;2023-07-29T10:04:44;21.32;56.92
70214;DHT22;60138;55.808;37.078;2023-07-29T10:07:11;21.24;58.75
70214;DHT22;60138;55.808;37.078;2023-07-29T10:09:39;21.19;56.97
70214;DHT22;60138;55.808;37.078;2023-07-29T10:12:09;21.21;56.72
70214;DHT22;60138;55.808;37.078;2023-07-29T10:14:37;21.31;58.45
70214;DHT22;60138;55.808;37.078;2023-07-29T10:17:04;21.25;57.34
70214;DHT22;60138;55.808;37.078;2023-07-29T10:19:31;21.18;58.16
70214;DHT22;60138;55.808;37.078;2023-07-29T10:21:59;21.04;58.00
70214;DHT22;60138;55.808;37.078;2023-07-29T10:24:30;21.07;56.71
70214;DHT22;60138;55.808;37.078;2023-07-29T10:26:58;21.08;58.25
70214;DHT22;60138;55.808;37.078;2023-07-29T10:29:24;21.03;55.74
70214;DHT22;60138;55.808;37.078;2023-07-29T10:31:54;21.04;57.58
70214;DHT22;60138;55.808;37.078;2023-07-29T10:34:23;21.08;56.75
70214;DHT22;60138;55.808;37.078;2023-07-29T10:36:50;21.17;58.53
70214;DHT22;60138;55.808;37.078;2023-07-29T10:39:16;21.28;57.88
70214;DHT22;60138;55.808;37.078;2023-07-29T10:42:01;21.35;57.66
70214;DHT22;60138;55.808;37.078;2023-07-29T10:47:12;21.31;54.24
70214;DHT22;60138;55.808;37.078;2023-07-29T10:49:45;21.19;56.23
70214;DHT22;60138;55.808;37.078;2023-07-29T10:52:16;21.27;56.64
70214;DHT22;60138;55.808;37.078;2023-07-29T10:54:46;21.34;57.20
70214;DHT22;60138;55.808;37.078;2023-07-29T10:57:13;21.42;56.32
70214;DHT22;60138;55.808;37.078;2023-07-29T10:59:39;21.38;54.27
70214;DHT22;60138;55.808;37.078;2023-07-29T11:02:14;21.36;57.17
70214;DHT22;60138;55.808;37.078;2023-07-29T11:04:50;21.34;56.73
70214;DHT22;60138;55.808;37.078;2023-07-29T11:12:45;21.57;57.79
70214;DHT22;60138;55.808;37.078;2023-07-29T11:15:24;21.54;52.51
70214;DHT22;60138;55.808;37.078;2023-07-29T11:18:01;21.39;53.19
70214;DHT22;60138;55.808;37.078;2023-07-29T11:20:29;21.31;55.80
70214;DHT22;60138;55.808;37.078;2023-07-29T11:22:56;21.39;56.67
70214;DHT22;60138;55.808;37.078;2023-07-29T11:25:24;21.39;56.98
70214;DHT22;60138;55.808;37.078;2023-07-29T11:27:54;21.24;53.95
70214;DHT22;60138;55.808;37.078;2023-07-29T11:30:21;21.11;54.88
70214;DHT22;60138;55.808;37.078;2023-07-29T11:32:47;21.09;57.12
70214;DHT22;60138;55.808;37.078;2023-07-29T11:35:17;21.20;57.57
70214;DHT22;60138;55.808;37.078;2023-07-29T11:37:48;21.18;53.30
70214;DHT22;60138;55.808;37.078;2023-07-29T11:40:24;21.14;53.88
70214;DHT22;60138;55.808;37.078;2023-07-29T11:42:51;21.09;55.39
70214;DHT22;60138;55.808;37.078;2023-07-29T11:45:19;21.04;54.22
70214;DHT22;60138;55.808;37.078;2023-07-29T11:47:45;21.00;55.09
70214;DHT22;60138;55.808;37.078;2023-07-29T11:50:12;20.96;56.43
70214;DHT22;60138;55.808;37.078;2023-07-29T11:52:40;20.94;56.38
70214;DHT22;60138;55.808;37.078;2023-07-29T11:55:07;20.88;54.43
70214;DHT22;60138;55.808;37.078;2023-07-29T11:57:35;20.91;55.68
70214;DHT22;60138;55.808;37.078;2023-07-29T12:00:03;20.96;56.74
70214;DHT22;60138;55.808;37.078;2023-07-29T12:02:40;21.15;57.03
70214;DHT22;60138;55.808;37.078;2023-07-29T12:05:08;21.35;57.64
70214;DHT22;60138;55.808;37.078;2023-07-29T12:07:34;21.50;57.66
70214;DHT22;60138;55.808;37.078;2023-07-29T12:10:02;21.60;56.21
70214;DHT22;60138;55.808;37.078;2023-07-29T12:12:30;21.67;54.94
70214;DHT22;60138;55.808;37.078;2023-07-29T12:14:56;21.88;56.63
70214;DHT22;60138;55.808;37.078;2023-07-29T12:17:22;22.14;56.50
70214;DHT22;60138;55.808;37.078;2023-07-29T12:19:48;22.37;55.90
70214;DHT22;60138;55.808;37.078;2023-07-29T12:22:19;22.60;56.40
70214;DHT22;60138;55.808;37.078;2023-07-29T12:24:45;22.70;56.77
70214;DHT22;60138;55.808;37.078;2023-07-29T12:27:13;22.73;55.58
70214;DHT22;60138;55.808;37.078;2023-07-29T12:29:43;22.69;54.88
70214;DHT22;60138;55.808;37.078;2023-07-29T12:32:10;22.49;56.72
70214;DHT22;60138;55.808;37.078;2023-07-29T12:34:37;22.10;53.84
70214;DHT22;60138;55.808;37.078;2023-07-29T12:37:04;21.94;53.63
70214;DHT22;60138;55.808;37.078;2023-07-29T12:39:32;21.82;55.37
70214;DHT22;60138;55.808;37.078;2023-07-29T12:41:59;21.85;56.36
70214;DHT22;60138;55.808;37.078;2023-07-29T12:44:34;21.91;55.89
70214;DHT22;60138;55.808;37.078;2023-07-29T12:47:01;21.95;56.32
70214;DHT22;60138;55.808;37.078;2023-07-29T12:49:27;21.79;55.81
70214;DHT22;60138;55.808;37.078;2023-07-29T12:51:53;21.81;56.55
70214;DHT22;60138;55.808;37.078;2023-07-29T12:54:19;21.83;55.51
70214;DHT22;60138;55.808;37.078;2023-07-29T12:56:45;21.76;55.89
70214;DHT22;60138;55.808;37.078;2023-07-29T12:59:11;21.70;56.50
70214;DHT22;60138;55.808;37.078;2023-07-29T13:01:36;21.76;53.87
70214;DHT22;60138;55.808;37.078;2023-07-29T13:04:02;21.83;54.49
70214;DHT22;60138;55.808;37.078;2023-07-29T13:06:28;21.93;54.80
70214;DHT22;60138;55.808;37.078;2023-07-29T13:08:53;22.02;55.07
70214;DHT22;60138;55.808;37.078;2023-07-29T13:11:19;22.06;55.17
70214;DHT22;60138;55.808;37.078;2023-07-29T13:13:45;22.01;52.13
70214;DHT22;60138;55.808;37.078;2023-07-29T13:16:12;21.94;52.61
70214;DHT22;60138;55.808;37.078;2023-07-29T13:18:37;21.95;53.01
70214;DHT22;60138;55.808;37.078;2023-07-29T13:21:03;22.02;54.81
70214;DHT22;60138;55.808;37.078;2023-07-29T13:23:29;22.12;55.25
70214;DHT22;60138;55.808;37.078;2023-07-29T13:25:55;22.27;56.16
70214;DHT22;60138;55.808;37.078;2023-07-29T13:28:21;22.67;56.16
70214;DHT22;60138;55.808;37.078;2023-07-29T13:30:47;22.91;51.37
70214;DHT22;60138;55.808;37.078;2023-07-29T13:33:13;23.23;55.15
70214;DHT22;60138;55.808;37.078;2023-07-29T13:35:39;23.67;56.32
70214;DHT22;60138;55.808;37.078;2023-07-29T13:38:05;23.79;52.41
70214;DHT22;60138;55.808;37.078;2023-07-29T13:40:31;23.80;47.83
70214;DHT22;60138;55.808;37.078;2023-07-29T13:42:57;23.84;50.07
70214;DHT22;60138;55.808;37.078;2023-07-29T13:45:23;23.97;54.04
70214;DHT22;60138;55.808;37.078;2023-07-29T13:47:49;24.08;54.65
70214;DHT22;60138;55.808;37.078;2023-07-29T13:50:15;24.00;53.18
70214;DHT22;60138;55.808;37.078;2023-07-29T13:52:40;24.00;49.24
70214;DHT22;60138;55.808;37.078;2023-07-29T13:55:06;23.92;53.16
70214;DHT22;60138;55.808;37.078;2023-07-29T13:57:32;23.67;47.89
70214;DHT22;60138;55.808;37.078;2023-07-29T13:59:58;23.57;51.29
70214;DHT22;60138;55.808;37.078;2023-07-29T14:02:24;23.49;51.19
70214;DHT22;60138;55.808;37.078;2023-07-29T14:04:50;23.45;47.44
70214;DHT22;60138;55.808;37.078;2023-07-29T14:07:16;23.31;48.63
70214;DHT22;60138;55.808;37.078;2023-07-29T14:09:42;23.13;47.26
70214;DHT22;60138;55.808;37.078;2023-07-29T14:12:07;23.25;50.97
70214;DHT22;60138;55.808;37.078;2023-07-29T14:14:33;23.41;51.55
70214;DHT22;60138;55.808;37.078;2023-07-29T14:16:59;23.60;46.74
70214;DHT22;60138;55.808;37.078;2023-07-29T14:19:25;23.82;50.61
70214;DHT22;60138;55.808;37.078;2023-07-29T14:21:51;24.10;49.15
70214;DHT22;60138;55.808;37.078;2023-07-29T14:24:16;24.20;50.25
70214;DHT22;60138;55.808;37.078;2023-07-29T14:26:42;24.05;47.25
70214;DHT22;60138;55.808;37.078;2023-07-29T14:29:08;23.80;49.86
70214;DHT22;60138;55.808;37.078;2023-07-29T14:31:33;23.74;48.77
70214;DHT22;60138;55.808;37.078;2023-07-29T14:33:59;23.77;49.46
70214;DHT22;60138;55.808;37.078;2023-07-29T14:36:25;23.72;47.62
70214;DHT22;60138;55.808;37.078;2023-07-29T14:38:51;23.55;45.41
70214;DHT22;60138;55.808;37.078;2023-07-29T14:41:17;23.47;48.28
70214;DHT22;60138;55.808;37.078;2023-07-29T14:43:43;23.50;48.60
70214;DHT22;60138;55.808;37.078;2023-07-29T14:46:09;23.42;48.60
70214;DHT22;60138;55.808;37.078;2023-07-29T14:48:35;23.45;51.52
70214;DHT22;60138;55.808;37.078;2023-07-29T14:51:00;23.54;51.29
70214;DHT22;60138;55.808;37.078;2023-07-29T14:53:26;23.80;51.75
70214;DHT22;60138;55.808;37.078;2023-07-29T14:55:52;24.05;51.45
70214;DHT22;60138;55.808;37.078;2023-07-29T14:58:18;24.40;51.52
70214;DHT22;60138;55.808;37.078;2023-07-29T15:00:43;24.69;51.11
70214;DHT22;60138;55.808;37.078;2023-07-29T15:03:09;25.08;51.00
70214;DHT22;60138;55.808;37.078;2023-07-29T15:05:35;25.60;49.89
70214;DHT22;60138;55.808;37.078;2023-07-29T15:08:01;25.87;45.36
70214;DHT22;60138;55.808;37.078;2023-07-29T15:10:27;26.19;49.50
70214;DHT22;60138;55.808;37.078;2023-07-29T15:12:53;26.66;49.37
70214;DHT22;60138;55.808;37.078;2023-07-29T15:15:19;26.47;48.57
70214;DHT22;60138;55.808;37.078;2023-07-29T15:17:45;26.19;49.05
70214;DHT22;60138;55.808;37.078;2023-07-29T15:20:11;25.93;49.05
70214;DHT22;60138;55.808;37.078;2023-07-29T15:22:37;25.65;48.57
70214;DHT22;60138;55.808;37.078;2023-07-29T15:25:03;25.37;49.45
70214;DHT22;60138;55.808;37.078;2023-07-29T15:27:29;25.15;50.02